sensor_id;sensor_type;location;lat;lon;timestamp;pressure;altitude;pressure_sealevel;temperature;humidity
10462;BME280;5278;42.656;23.374;2023-10-31T00:00:40;94830.09;;;14.54;72.87
10462;BME280;5278;42.656;23.374;2023-10-31T00:03:06;94824.00;;;14.47;73.06
10462;BME280;5278;42.656;23.374;2023-10-31T00:05:34;94827.63;;;14.46;73.07
10462;BME280;5278;42.656;23.374;2023-10-31T00:08:01;94832.09;;;14.52;72.88
10462;BME280;5278;42.656;23.374;2023-10-31T00:10:29;94830.47;;;14.51;72.93
10462;BME280;5278;42.656;23.374;2023-10-31T00:12:57;94825.03;;;14.53;72.83
10462;BME280;5278;42.656;23.374;2023-10-31T00:15:24;94825.22;;;14.51;72.74
10462;BME280;5278;42.656;23.374;2023-10-31T00:17:51;94829.28;;;14.54;72.80
10462;BME280;5278;42.656;23.374;2023-10-31T00:20:18;94820.41;;;14.55;72.45
10462;BME280;5278;42.656;23.374;2023-10-31T00:22:47;94827.06;;;14.57;72.54
10462;BME280;5278;42.656;23.374;2023-10-31T00:25:14;94823.25;;;14.53;72.31
10462;BME280;5278;42.656;23.374;2023-10-31T00:27:41;94807.06;;;14.37;71.83
10462;BME280;5278;42.656;23.374;2023-10-31T00:30:08;94815.53;;;14.39;71.92
10462;BME280;5278;42.656;23.374;2023-10-31T00:32:35;94814.31;;;14.41;71.75
10462;BME280;5278;42.656;23.374;2023-10-31T00:35:02;94820.53;;;14.40;71.68
10462;BME280;5278;42.656;23.374;2023-10-31T00:37:29;94814.72;;;14.38;72.24
10462;BME280;5278;42.656;23.374;2023-10-31T00:40:00;94817.50;;;14.37;72.32
10462;BME280;5278;42.656;23.374;2023-10-31T00:42:27;94816.34;;;14.39;71.67
10462;BME280;5278;42.656;23.374;2023-10-31T00:44:55;94815.03;;;14.35;71.52
10462;BME280;5278;42.656;23.374;2023-10-31T00:47:22;94804.00;;;14.33;71.31
10462;BME280;5278;42.656;23.374;2023-10-31T00:49:48;94775.72;;;14.09;71.59
10462;BME280;5278;42.656;23.374;2023-10-31T00:52:18;94804.28;;;14.17;72.38
10462;BME280;5278;42.656;23.374;2023-10-31T00:54:45;94804.13;;;14.18;72.42
10462;BME280;5278;42.656;23.374;2023-10-31T00:57:13;94798.59;;;14.07;72.15
10462;BME280;5278;42.656;23.374;2023-10-31T00:59:40;94788.53;;;14.04;72.21
10462;BME280;5278;42.656;23.374;2023-10-31T01:02:08;94807.81;;;14.03;72.48
10462;BME280;5278;42.656;23.374;2023-10-31T01:04:36;94797.94;;;13.98;72.89
10462;BME280;5278;42.656;23.374;2023-10-31T01:07:03;94804.56;;;13.94;73.15
10462;BME280;5278;42.656;23.374;2023-10-31T01:09:31;94796.84;;;13.86;73.28
10462;BME280;5278;42.656;23.374;2023-10-31T01:11:58;94791.78;;;13.78;73.65
10462;BME280;5278;42.656;23.374;2023-10-31T01:14:27;94781.75;;;13.82;73.57
10462;BME280;5278;42.656;23.374;2023-10-31T01:16:55;94768.41;;;13.70;73.92
10462;BME280;5278;42.656;23.374;2023-10-31T01:19:24;94773.31;;;13.79;74.31
10462;BME280;5278;42.656;23.374;2023-10-31T01:21:51;94770.41;;;13.68;74.60
10462;BME280;5278;42.656;23.374;2023-10-31T01:24:18;94780.13;;;13.80;74.66
10462;BME280;5278;42.656;23.374;2023-10-31T01:26:45;94787.78;;;13.82;74.50
10462;BME280;5278;42.656;23.374;2023-10-31T01:29:13;94782.56;;;13.82;74.24
10462;BME280;5278;42.656;23.374;2023-10-31T01:31:42;94785.59;;;13.86;74.24
10462;BME280;5278;42.656;23.374;2023-10-31T01:34:10;94782.38;;;13.84;74.06
10462;BME280;5278;42.656;23.374;2023-10-31T01:36:37;94775.31;;;13.77;74.13
10462;BME280;5278;42.656;23.374;2023-10-31T01:39:03;94770.06;;;13.77;74.27
10462;BME280;5278;42.656;23.374;2023-10-31T01:41:33;94771.69;;;13.78;74.56
10462;BME280;5278;42.656;23.374;2023-10-31T01:43:59;94770.47;;;13.74;74.76
10462;BME280;5278;42.656;23.374;2023-10-31T01:46:26;94776.47;;;13.75;74.78
10462;BME280;5278;42.656;23.374;2023-10-31T01:48:55;94773.63;;;13.70;75.21
10462;BME280;5278;42.656;23.374;2023-10-31T01:51:22;94781.03;;;13.66;75.08
10462;BME280;5278;42.656;23.374;2023-10-31T01:53:50;94787.22;;;13.59;75.48
10462;BME280;5278;42.656;23.374;2023-10-31T01:56:18;94773.09;;;13.53;75.74
10462;BME280;5278;42.656;23.374;2023-10-31T01:58:45;94783.13;;;13.50;75.68
10462;BME280;5278;42.656;23.374;2023-10-31T02:01:12;94781.94;;;13.52;75.75
10462;BME280;5278;42.656;23.374;2023-10-31T02:03:39;94771.63;;;13.44;76.00
10462;BME280;5278;42.656;23.374;2023-10-31T02:06:08;94740.50;;;13.21;76.19
10462;BME280;5278;42.656;23.374;2023-10-31T02:08:35;94768.97;;;13.38;76.09
10462;BME280;5278;42.656;23.374;2023-10-31T02:11:03;94765.69;;;13.29;76.26
10462;BME280;5278;42.656;23.374;2023-10-31T02:13:31;94761.03;;;13.24;76.56
10462;BME280;5278;42.656;23.374;2023-10-31T02:15:58;94746.69;;;13.14;76.58
10462;BME280;5278;42.656;23.374;2023-10-31T02:18:27;94755.56;;;13.19;76.64
10462;BME280;5278;42.656;23.374;2023-10-31T02:20:54;94755.00;;;13.24;76.58
10462;BME280;5278;42.656;23.374;2023-10-31T02:23:22;94756.06;;;13.29;76.05
10462;BME280;5278;42.656;23.374;2023-10-31T02:25:49;94652.56;;;12.73;75.79
10462;BME280;5278;42.656;23.374;2023-10-31T02:28:16;94752.81;;;13.27;76.09
10462;BME280;5278;42.656;23.374;2023-10-31T02:30:44;94750.59;;;13.24;76.06
10462;BME280;5278;42.656;23.374;2023-10-31T02:33:11;94749.53;;;13.19;76.29
10462;BME280;5278;42.656;23.374;2023-10-31T02:35:39;94752.31;;;13.17;76.58
10462;BME280;5278;42.656;23.374;2023-10-31T02:38:06;94746.03;;;13.12;76.36
10462;BME280;5278;42.656;23.374;2023-10-31T02:40:34;94745.47;;;13.16;76.34
10462;BME280;5278;42.656;23.374;2023-10-31T02:43:02;94749.53;;;13.19;76.36
10462;BME280;5278;42.656;23.374;2023-10-31T02:45:28;94747.16;;;13.24;75.99
10462;BME280;5278;42.656;23.374;2023-10-31T02:47:55;94731.63;;;13.16;76.06
10462;BME280;5278;42.656;23.374;2023-10-31T02:50:23;94652.50;;;12.66;75.91
10462;BME280;5278;42.656;23.374;2023-10-31T02:52:50;94743.78;;;13.30;75.49
10462;BME280;5278;42.656;23.374;2023-10-31T02:55:18;94738.28;;;13.18;75.95
10462;BME280;5278;42.656;23.374;2023-10-31T02:57:46;94749.88;;;13.16;75.86
10462;BME280;5278;42.656;23.374;2023-10-31T03:00:14;94745.94;;;13.05;76.18
10462;BME280;5278;42.656;23.374;2023-10-31T03:02:41;94747.69;;;12.98;77.28
10462;BME280;5278;42.656;23.374;2023-10-31T03:05:09;94761.22;;;12.87;77.52
10462;BME280;5278;42.656;23.374;2023-10-31T03:07:36;94761.44;;;12.71;78.25
10462;BME280;5278;42.656;23.374;2023-10-31T03:10:03;94746.72;;;12.63;79.27
10462;BME280;5278;42.656;23.374;2023-10-31T03:12:30;94742.13;;;12.65;78.89
10462;BME280;5278;42.656;23.374;2023-10-31T03:14:59;94753.56;;;12.64;79.45
10462;BME280;5278;42.656;23.374;2023-10-31T03:17:26;94758.94;;;12.63;79.67
10462;BME280;5278;42.656;23.374;2023-10-31T03:19:53;94759.03;;;12.69;79.23
10462;BME280;5278;42.656;23.374;2023-10-31T03:22:20;94750.56;;;12.67;79.56
10462;BME280;5278;42.656;23.374;2023-10-31T03:24:47;94754.13;;;12.81;78.92
10462;BME280;5278;42.656;23.374;2023-10-31T03:27:14;94749.84;;;12.73;79.01
10462;BME280;5278;42.656;23.374;2023-10-31T03:29:41;94744.97;;;12.70;79.33
10462;BME280;5278;42.656;23.374;2023-10-31T03:32:09;94736.69;;;12.60;79.84
10462;BME280;5278;42.656;23.374;2023-10-31T03:34:37;94743.16;;;12.49;80.26
10462;BME280;5278;42.656;23.374;2023-10-31T03:37:04;94743.19;;;12.35;80.78
10462;BME280;5278;42.656;23.374;2023-10-31T03:39:31;94729.91;;;12.30;81.08
10462;BME280;5278;42.656;23.374;2023-10-31T03:41:59;94727.38;;;12.22;81.69
10462;BME280;5278;42.656;23.374;2023-10-31T03:44:27;94722.03;;;12.08;82.42
10462;BME280;5278;42.656;23.374;2023-10-31T03:46:54;94735.75;;;12.02;82.80
10462;BME280;5278;42.656;23.374;2023-10-31T03:49:23;94725.34;;;11.88;83.94
10462;BME280;5278;42.656;23.374;2023-10-31T03:51:50;94749.59;;;11.88;83.84
10462;BME280;5278;42.656;23.374;2023-10-31T03:54:17;94718.44;;;11.80;84.07
10462;BME280;5278;42.656;23.374;2023-10-31T03:56:44;94688.44;;;11.55;84.76
10462;BME280;5278;42.656;23.374;2023-10-31T03:59:11;94725.03;;;11.68;85.30
10462;BME280;5278;42.656;23.374;2023-10-31T04:01:45;94732.47;;;11.71;85.61
10462;BME280;5278;42.656;23.374;2023-10-31T04:04:15;94729.34;;;11.61;85.60
10462;BME280;5278;42.656;23.374;2023-10-31T04:06:44;94723.25;;;11.69;85.33
10462;BME280;5278;42.656;23.374;2023-10-31T04:09:11;94725.50;;;11.72;85.34
10462;BME280;5278;42.656;23.374;2023-10-31T04:11:38;94726.97;;;11.74;85.13
10462;BME280;5278;42.656;23.374;2023-10-31T04:14:05;94731.28;;;11.82;85.25
10462;BME280;5278;42.656;23.374;2023-10-31T04:16:32;94723.00;;;11.78;84.80
10462;BME280;5278;42.656;23.374;2023-10-31T04:19:00;94743.84;;;11.93;84.48
10462;BME280;5278;42.656;23.374;2023-10-31T04:21:27;94727.69;;;11.97;83.74
10462;BME280;5278;42.656;23.374;2023-10-31T04:23:55;94724.97;;;12.05;83.77
10462;BME280;5278;42.656;23.374;2023-10-31T04:26:22;94718.19;;;12.04;83.26
10462;BME280;5278;42.656;23.374;2023-10-31T04:28:49;94717.00;;;12.07;83.28
10462;BME280;5278;42.656;23.374;2023-10-31T04:31:16;94711.69;;;12.00;83.19
10462;BME280;5278;42.656;23.374;2023-10-31T04:33:42;94678.94;;;11.77;83.56
10462;BME280;5278;42.656;23.374;2023-10-31T04:36:09;94707.28;;;11.86;83.89
10462;BME280;5278;42.656;23.374;2023-10-31T04:38:36;94688.59;;;11.68;84.43
10462;BME280;5278;42.656;23.374;2023-10-31T04:41:08;94701.22;;;11.79;84.51
10462;BME280;5278;42.656;23.374;2023-10-31T04:43:35;94664.00;;;11.41;84.48
10462;BME280;5278;42.656;23.374;2023-10-31T04:46:02;94719.44;;;11.79;84.99
10462;BME280;5278;42.656;23.374;2023-10-31T04:48:29;94709.91;;;11.86;84.45
10462;BME280;5278;42.656;23.374;2023-10-31T04:50:58;94690.59;;;11.81;84.03
10462;BME280;5278;42.656;23.374;2023-10-31T04:53:25;94679.13;;;11.75;83.47
10462;BME280;5278;42.656;23.374;2023-10-31T04:55:52;94729.84;;;11.94;83.75
10462;BME280;5278;42.656;23.374;2023-10-31T04:58:20;94734.59;;;12.05;83.77
10462;BME280;5278;42.656;23.374;2023-10-31T05:00:46;94726.25;;;12.10;83.32
10462;BME280;5278;42.656;23.374;2023-10-31T05:03:15;94734.31;;;12.15;82.88
10462;BME280;5278;42.656;23.374;2023-10-31T05:05:43;94707.75;;;12.04;82.66
10462;BME280;5278;42.656;23.374;2023-10-31T05:08:10;94721.31;;;12.15;82.34
10462;BME280;5278;42.656;23.374;2023-10-31T05:10:37;94734.03;;;12.24;82.44
10462;BME280;5278;42.656;23.374;2023-10-31T05:13:04;94718.84;;;12.28;82.16
10462;BME280;5278;42.656;23.374;2023-10-31T05:15:33;94720.16;;;12.53;81.07
10462;BME280;5278;42.656;23.374;2023-10-31T05:18:00;94729.13;;;12.86;80.71
10462;BME280;5278;42.656;23.374;2023-10-31T05:20:28;94663.38;;;12.70;78.06
10462;BME280;5278;42.656;23.374;2023-10-31T05:22:54;94731.78;;;13.35;76.28
10462;BME280;5278;42.656;23.374;2023-10-31T05:25:22;94723.50;;;13.53;74.51
10462;BME280;5278;42.656;23.374;2023-10-31T05:27:49;94727.53;;;13.84;72.94
10462;BME280;5278;42.656;23.374;2023-10-31T05:30:16;94734.38;;;14.26;71.41
10462;BME280;5278;42.656;23.374;2023-10-31T05:32:44;94730.13;;;14.65;68.60
10462;BME280;5278;42.656;23.374;2023-10-31T05:35:11;94726.03;;;15.17;66.93
10462;BME280;5278;42.656;23.374;2023-10-31T05:37:40;94727.66;;;15.71;64.16
10462;BME280;5278;42.656;23.374;2023-10-31T05:40:08;94726.59;;;16.05;62.70
10462;BME280;5278;42.656;23.374;2023-10-31T05:42:36;94734.28;;;16.64;60.33
10462;BME280;5278;42.656;23.374;2023-10-31T05:45:04;94725.13;;;17.17;57.80
10462;BME280;5278;42.656;23.374;2023-10-31T05:47:31;94718.16;;;18.04;56.49
10462;BME280;5278;42.656;23.374;2023-10-31T05:50:00;94710.88;;;18.61;53.33
10462;BME280;5278;42.656;23.374;2023-10-31T05:52:28;94633.41;;;18.68;51.09
10462;BME280;5278;42.656;23.374;2023-10-31T05:54:55;94714.56;;;19.96;48.29
10462;BME280;5278;42.656;23.374;2023-10-31T05:57:23;94711.09;;;20.82;45.74
10462;BME280;5278;42.656;23.374;2023-10-31T05:59:49;94718.41;;;21.20;43.37
10462;BME280;5278;42.656;23.374;2023-10-31T06:02:16;94723.34;;;21.44;42.11
10462;BME280;5278;42.656;23.374;2023-10-31T06:04:43;94739.22;;;21.78;41.90
10462;BME280;5278;42.656;23.374;2023-10-31T06:07:11;94748.84;;;22.17;41.61
10462;BME280;5278;42.656;23.374;2023-10-31T06:09:38;94749.53;;;22.46;40.87
10462;BME280;5278;42.656;23.374;2023-10-31T06:12:05;94736.44;;;22.78;39.88
10462;BME280;5278;42.656;23.374;2023-10-31T06:14:32;94740.97;;;23.04;39.98
10462;BME280;5278;42.656;23.374;2023-10-31T06:16:59;94739.06;;;23.27;39.48
10462;BME280;5278;42.656;23.374;2023-10-31T06:19:26;94741.72;;;23.27;38.93
10462;BME280;5278;42.656;23.374;2023-10-31T06:21:53;94745.28;;;23.37;39.12
10462;BME280;5278;42.656;23.374;2023-10-31T06:24:22;94746.16;;;23.70;38.11
10462;BME280;5278;42.656;23.374;2023-10-31T06:26:50;94729.22;;;23.76;38.10
10462;BME280;5278;42.656;23.374;2023-10-31T06:29:16;94733.22;;;24.15;37.49
10462;BME280;5278;42.656;23.374;2023-10-31T06:31:43;94738.47;;;24.47;36.62
10462;BME280;5278;42.656;23.374;2023-10-31T06:34:13;94741.28;;;24.77;35.94
10462;BME280;5278;42.656;23.374;2023-10-31T06:36:40;94749.38;;;24.98;35.61
10462;BME280;5278;42.656;23.374;2023-10-31T06:39:07;94751.06;;;25.29;34.75
10462;BME280;5278;42.656;23.374;2023-10-31T06:41:35;94758.09;;;25.55;34.40
10462;BME280;5278;42.656;23.374;2023-10-31T06:44:03;94743.69;;;25.66;34.40
10462;BME280;5278;42.656;23.374;2023-10-31T06:46:30;94733.31;;;26.00;33.68
10462;BME280;5278;42.656;23.374;2023-10-31T06:48:57;94734.09;;;26.41;32.59
10462;BME280;5278;42.656;23.374;2023-10-31T06:51:24;94720.50;;;26.43;32.96
10462;BME280;5278;42.656;23.374;2023-10-31T06:53:51;94723.91;;;26.59;31.95
10462;BME280;5278;42.656;23.374;2023-10-31T06:56:18;94727.09;;;26.61;32.52
10462;BME280;5278;42.656;23.374;2023-10-31T06:58:46;94715.88;;;26.74;32.31
10462;BME280;5278;42.656;23.374;2023-10-31T07:01:16;94723.13;;;27.22;31.26
10462;BME280;5278;42.656;23.374;2023-10-31T07:03:45;94723.47;;;27.55;31.47
10462;BME280;5278;42.656;23.374;2023-10-31T07:06:11;94712.53;;;28.24;30.17
10462;BME280;5278;42.656;23.374;2023-10-31T07:08:38;94718.47;;;28.68;29.24
10462;BME280;5278;42.656;23.374;2023-10-31T07:11:05;94718.56;;;29.06;29.21
10462;BME280;5278;42.656;23.374;2023-10-31T07:13:32;94719.00;;;29.37;28.54
10462;BME280;5278;42.656;23.374;2023-10-31T07:16:01;94716.16;;;29.66;27.76
10462;BME280;5278;42.656;23.374;2023-10-31T07:18:27;94718.97;;;29.74;27.66
10462;BME280;5278;42.656;23.374;2023-10-31T07:20:59;94715.91;;;30.00;27.78
10462;BME280;5278;42.656;23.374;2023-10-31T07:23:26;94709.09;;;30.53;27.13
10462;BME280;5278;42.656;23.374;2023-10-31T07:25:52;94714.94;;;31.10;25.93
10462;BME280;5278;42.656;23.374;2023-10-31T07:28:20;94708.88;;;31.68;25.16
10462;BME280;5278;42.656;23.374;2023-10-31T07:30:47;94709.28;;;32.05;24.50
10462;BME280;5278;42.656;23.374;2023-10-31T07:33:17;94707.69;;;32.04;24.38
10462;BME280;5278;42.656;23.374;2023-10-31T07:35:44;94704.47;;;31.94;25.62
10462;BME280;5278;42.656;23.374;2023-10-31T07:38:11;94701.78;;;31.94;26.21
10462;BME280;5278;42.656;23.374;2023-10-31T07:40:38;94700.50;;;32.44;24.74
10462;BME280;5278;42.656;23.374;2023-10-31T07:43:06;94699.28;;;32.51;25.03
10462;BME280;5278;42.656;23.374;2023-10-31T07:45:33;94699.72;;;32.83;24.35
10462;BME280;5278;42.656;23.374;2023-10-31T07:48:01;94687.28;;;33.13;24.09
10462;BME280;5278;42.656;23.374;2023-10-31T07:50:30;94680.38;;;33.64;23.24
10462;BME280;5278;42.656;23.374;2023-10-31T07:52:57;94674.47;;;34.22;22.50
10462;BME280;5278;42.656;23.374;2023-10-31T07:55:24;94678.38;;;34.42;22.91
10462;BME280;5278;42.656;23.374;2023-10-31T07:57:52;94671.41;;;34.79;22.00
10462;BME280;5278;42.656;23.374;2023-10-31T08:00:19;94673.41;;;34.90;21.88
10462;BME280;5278;42.656;23.374;2023-10-31T08:02:47;94664.75;;;35.06;22.13
10462;BME280;5278;42.656;23.374;2023-10-31T08:05:14;94622.53;;;35.22;21.22
10462;BME280;5278;42.656;23.374;2023-10-31T08:07:42;94658.84;;;35.74;20.87
10462;BME280;5278;42.656;23.374;2023-10-31T08:10:09;94647.66;;;35.97;21.21
10462;BME280;5278;42.656;23.374;2023-10-31T08:12:36;94653.63;;;36.23;20.73
10462;BME280;5278;42.656;23.374;2023-10-31T08:15:04;94657.91;;;36.24;20.50
10462;BME280;5278;42.656;23.374;2023-10-31T08:17:31;94667.84;;;36.32;20.85
10462;BME280;5278;42.656;23.374;2023-10-31T08:19:58;94653.47;;;36.89;19.83
10462;BME280;5278;42.656;23.374;2023-10-31T08:22:25;94652.56;;;37.09;20.07
10462;BME280;5278;42.656;23.374;2023-10-31T08:24:54;94641.00;;;37.24;19.93
10462;BME280;5278;42.656;23.374;2023-10-31T08:27:21;94641.41;;;37.50;19.24
10462;BME280;5278;42.656;23.374;2023-10-31T08:29:48;94634.47;;;37.65;19.25
10462;BME280;5278;42.656;23.374;2023-10-31T08:32:15;94639.78;;;37.62;18.99
10462;BME280;5278;42.656;23.374;2023-10-31T08:34:42;94624.84;;;37.68;19.45
10462;BME280;5278;42.656;23.374;2023-10-31T08:37:09;94618.16;;;37.93;18.77
10462;BME280;5278;42.656;23.374;2023-10-31T08:39:36;94607.47;;;37.84;18.83
10462;BME280;5278;42.656;23.374;2023-10-31T08:42:05;94608.94;;;38.10;18.51
10462;BME280;5278;42.656;23.374;2023-10-31T08:44:32;94612.44;;;38.26;18.33
10462;BME280;5278;42.656;23.374;2023-10-31T08:47:03;94609.22;;;38.52;18.14
10462;BME280;5278;42.656;23.374;2023-10-31T08:49:31;94608.97;;;38.57;17.92
10462;BME280;5278;42.656;23.374;2023-10-31T08:51:58;94596.16;;;38.57;18.19
10462;BME280;5278;42.656;23.374;2023-10-31T08:54:27;94591.97;;;38.60;17.97
10462;BME280;5278;42.656;23.374;2023-10-31T08:56:54;94582.28;;;38.78;18.04
10462;BME280;5278;42.656;23.374;2023-10-31T08:59:23;94574.69;;;38.87;17.71
10462;BME280;5278;42.656;23.374;2023-10-31T09:01:50;94573.38;;;38.97;17.67
10462;BME280;5278;42.656;23.374;2023-10-31T09:04:17;94543.19;;;38.67;17.62
10462;BME280;5278;42.656;23.374;2023-10-31T09:06:44;94572.47;;;38.42;18.02
10462;BME280;5278;42.656;23.374;2023-10-31T09:09:11;94573.00;;;38.32;18.14
10462;BME280;5278;42.656;23.374;2023-10-31T09:11:39;94556.72;;;38.16;18.15
10462;BME280;5278;42.656;23.374;2023-10-31T09:14:06;94561.19;;;38.09;18.06
10462;BME280;5278;42.656;23.374;2023-10-31T09:16:35;94553.78;;;37.93;18.19
10462;BME280;5278;42.656;23.374;2023-10-31T09:19:02;94537.50;;;37.93;18.13
10462;BME280;5278;42.656;23.374;2023-10-31T09:21:29;94537.00;;;38.04;18.75
10462;BME280;5278;42.656;23.374;2023-10-31T09:23:56;94475.94;;;38.13;18.09
10462;BME280;5278;42.656;23.374;2023-10-31T09:26:23;94534.00;;;38.56;17.92
10462;BME280;5278;42.656;23.374;2023-10-31T09:28:50;94527.69;;;38.87;17.83
10462;BME280;5278;42.656;23.374;2023-10-31T09:31:17;94523.69;;;39.15;17.53
10462;BME280;5278;42.656;23.374;2023-10-31T09:33:47;94514.56;;;39.27;17.73
10462;BME280;5278;42.656;23.374;2023-10-31T09:36:14;94511.22;;;38.95;17.87
10462;BME280;5278;42.656;23.374;2023-10-31T09:38:41;94508.06;;;38.78;18.04
10462;BME280;5278;42.656;23.374;2023-10-31T09:41:08;94507.19;;;39.08;17.48
10462;BME280;5278;42.656;23.374;2023-10-31T09:43:35;94504.81;;;39.26;17.63
10462;BME280;5278;42.656;23.374;2023-10-31T09:46:03;94486.94;;;39.25;17.29
10462;BME280;5278;42.656;23.374;2023-10-31T09:48:33;94489.47;;;38.95;17.87
10462;BME280;5278;42.656;23.374;2023-10-31T09:51:06;94480.44;;;39.10;17.68
10462;BME280;5278;42.656;23.374;2023-10-31T09:53:36;94470.91;;;39.39;17.66
10462;BME280;5278;42.656;23.374;2023-10-31T09:56:06;94468.97;;;39.63;17.08
10462;BME280;5278;42.656;23.374;2023-10-31T09:58:33;94469.53;;;40.17;17.12
10462;BME280;5278;42.656;23.374;2023-10-31T10:01:00;94464.81;;;40.40;16.09
10462;BME280;5278;42.656;23.374;2023-10-31T10:03:28;94460.88;;;40.34;16.54
10462;BME280;5278;42.656;23.374;2023-10-31T10:05:56;94458.63;;;40.17;16.58
10462;BME280;5278;42.656;23.374;2023-10-31T10:08:25;94450.75;;;40.12;16.55
10462;BME280;5278;42.656;23.374;2023-10-31T10:10:52;94446.97;;;40.43;16.06
10462;BME280;5278;42.656;23.374;2023-10-31T10:13:20;94442.78;;;40.49;16.60
10462;BME280;5278;42.656;23.374;2023-10-31T10:15:49;94437.81;;;40.28;16.46
10462;BME280;5278;42.656;23.374;2023-10-31T10:18:27;94429.91;;;40.20;16.24
10462;BME280;5278;42.656;23.374;2023-10-31T10:20:55;94421.81;;;40.27;16.33
10462;BME280;5278;42.656;23.374;2023-10-31T10:23:25;94416.28;;;39.97;16.66
10462;BME280;5278;42.656;23.374;2023-10-31T10:25:54;94416.13;;;39.86;16.52
10462;BME280;5278;42.656;23.374;2023-10-31T10:28:21;94414.78;;;39.54;16.54
10462;BME280;5278;42.656;23.374;2023-10-31T10:30:50;94414.44;;;39.13;16.60
10462;BME280;5278;42.656;23.374;2023-10-31T10:33:18;94403.44;;;37.67;17.96
10462;BME280;5278;42.656;23.374;2023-10-31T10:35:45;94408.31;;;37.02;18.25
10462;BME280;5278;42.656;23.374;2023-10-31T10:38:14;94404.44;;;36.47;19.41
10462;BME280;5278;42.656;23.374;2023-10-31T10:40:45;94404.75;;;35.94;19.79
10462;BME280;5278;42.656;23.374;2023-10-31T10:43:21;94405.47;;;35.21;19.93
10462;BME280;5278;42.656;23.374;2023-10-31T10:45:53;94392.53;;;34.94;20.52
10462;BME280;5278;42.656;23.374;2023-10-31T10:48:23;94390.22;;;34.72;20.27
10462;BME280;5278;42.656;23.374;2023-10-31T10:50:56;94381.69;;;34.61;20.54
10462;BME280;5278;42.656;23.374;2023-10-31T10:53:25;94362.50;;;34.12;20.88
10462;BME280;5278;42.656;23.374;2023-10-31T10:55:56;94368.78;;;34.04;20.57
10462;BME280;5278;42.656;23.374;2023-10-31T10:58:34;94360.56;;;34.01;20.60
10462;BME280;5278;42.656;23.374;2023-10-31T11:01:04;94363.44;;;33.96;20.52
10462;BME280;5278;42.656;23.374;2023-10-31T11:03:31;94354.47;;;33.16;21.53
10462;BME280;5278;42.656;23.374;2023-10-31T11:06:00;94313.72;;;32.71;21.60
10462;BME280;5278;42.656;23.374;2023-10-31T11:08:29;94342.88;;;32.52;21.57
10462;BME280;5278;42.656;23.374;2023-10-31T11:10:58;94337.78;;;31.90;22.12
10462;BME280;5278;42.656;23.374;2023-10-31T11:13:27;94340.09;;;31.57;22.77
10462;BME280;5278;42.656;23.374;2023-10-31T11:15:58;94348.25;;;31.04;23.35
10462;BME280;5278;42.656;23.374;2023-10-31T11:18:26;94337.16;;;30.44;24.39
10462;BME280;5278;42.656;23.374;2023-10-31T11:20:53;94332.75;;;30.03;25.16
10462;BME280;5278;42.656;23.374;2023-10-31T11:23:20;94331.31;;;29.56;25.64
10462;BME280;5278;42.656;23.374;2023-10-31T11:25:50;94325.41;;;29.18;25.86
10462;BME280;5278;42.656;23.374;2023-10-31T11:28:22;94328.38;;;28.57;25.92
10462;BME280;5278;42.656;23.374;2023-10-31T11:30:50;94325.28;;;28.17;26.76
10462;BME280;5278;42.656;23.374;2023-10-31T11:33:23;94315.97;;;27.77;27.69
10462;BME280;5278;42.656;23.374;2023-10-31T11:35:51;94289.13;;;27.26;28.26
10462;BME280;5278;42.656;23.374;2023-10-31T11:38:30;94307.00;;;27.26;28.17
10462;BME280;5278;42.656;23.374;2023-10-31T11:40:59;94304.69;;;27.19;28.74
10462;BME280;5278;42.656;23.374;2023-10-31T11:43:52;94309.97;;;27.01;29.17
10462;BME280;5278;42.656;23.374;2023-10-31T11:46:19;94284.41;;;26.71;29.53
10462;BME280;5278;42.656;23.374;2023-10-31T11:48:48;94286.69;;;26.82;29.72
10462;BME280;5278;42.656;23.374;2023-10-31T11:51:16;94185.25;;;26.16;29.45
10462;BME280;5278;42.656;23.374;2023-10-31T11:53:43;94285.81;;;26.63;29.94
10462;BME280;5278;42.656;23.374;2023-10-31T11:56:10;94286.78;;;26.48;30.13
10462;BME280;5278;42.656;23.374;2023-10-31T11:58:39;94280.41;;;26.44;30.37
10462;BME280;5278;42.656;23.374;2023-10-31T12:01:08;94281.66;;;26.52;30.45
10462;BME280;5278;42.656;23.374;2023-10-31T12:03:38;94266.28;;;26.44;30.92
10462;BME280;5278;42.656;23.374;2023-10-31T12:06:06;94272.91;;;26.46;31.22
10462;BME280;5278;42.656;23.374;2023-10-31T12:08:37;94271.38;;;26.40;31.34
10462;BME280;5278;42.656;23.374;2023-10-31T12:11:08;94227.44;;;26.09;31.53
10462;BME280;5278;42.656;23.374;2023-10-31T12:13:39;94253.97;;;26.24;31.43
10462;BME280;5278;42.656;23.374;2023-10-31T12:16:08;94250.78;;;26.22;31.69
10462;BME280;5278;42.656;23.374;2023-10-31T12:18:37;94250.19;;;26.25;31.60
10462;BME280;5278;42.656;23.374;2023-10-31T12:21:05;94242.22;;;26.25;31.55
10462;BME280;5278;42.656;23.374;2023-10-31T12:23:33;94248.06;;;26.27;31.67
10462;BME280;5278;42.656;23.374;2023-10-31T12:26:00;94247.50;;;26.30;31.42
10462;BME280;5278;42.656;23.374;2023-10-31T12:28:27;94250.56;;;26.42;31.27
10462;BME280;5278;42.656;23.374;2023-10-31T12:30:56;94254.78;;;26.72;30.80
10462;BME280;5278;42.656;23.374;2023-10-31T12:33:26;94245.19;;;26.95;30.92
10462;BME280;5278;42.656;23.374;2023-10-31T12:35:57;94242.09;;;26.88;30.51
10462;BME280;5278;42.656;23.374;2023-10-31T12:38:24;94233.19;;;26.97;30.33
10462;BME280;5278;42.656;23.374;2023-10-31T12:40:52;94225.06;;;26.84;30.66
10462;BME280;5278;42.656;23.374;2023-10-31T12:43:20;94196.19;;;26.67;30.48
10462;BME280;5278;42.656;23.374;2023-10-31T12:45:47;94209.06;;;26.84;30.48
10462;BME280;5278;42.656;23.374;2023-10-31T12:48:15;94214.50;;;26.74;30.55
10462;BME280;5278;42.656;23.374;2023-10-31T12:50:43;94210.03;;;26.69;30.85
10462;BME280;5278;42.656;23.374;2023-10-31T12:53:09;94214.13;;;26.62;30.94
10462;BME280;5278;42.656;23.374;2023-10-31T12:55:41;94207.25;;;26.55;31.29
10462;BME280;5278;42.656;23.374;2023-10-31T12:58:20;94202.28;;;26.49;31.41
10462;BME280;5278;42.656;23.374;2023-10-31T13:00:47;94211.06;;;26.49;31.29
10462;BME280;5278;42.656;23.374;2023-10-31T13:03:17;94210.47;;;26.29;31.71